Time;durP1;ratioP1;P1;durP2;ratioP2;P2;SDS_P1;SDS_P2;PMS_P1;PMS_P2;Temp;Humidity;BMP_temperature;BMP_pressure;BME280_temperature;BME280_humidity;BME280_pressure;Samples;Min_cycle;Max_cycle;Signal;HPM_P1;HPM_P2
2022/10/12 00:02:17;;;;;;;7.33;3.73;;;;;;;7.88;100.00;100647.30;1681585;85;21427;-58
2022/10/12 00:04:44;;;;;;;6.40;3.60;;;;;;;7.79;100.00;100651.16;1687121;84;21667;-58
2022/10/12 00:07:11;;;;;;;6.40;3.40;;;;;;;7.76;100.00;100650.16;1688867;84;21213;-66
2022/10/12 00:09:40;;;;;;;6.90;3.70;;;;;;;7.69;100.00;100650.94;1689353;84;21380;-57
2022/10/12 00:12:07;;;;;;;5.30;3.57;;;;;;;7.66;100.00;100647.37;1689443;84;21304;-57
2022/10/12 00:14:37;;;;;;;5.87;4.20;;;;;;;7.62;100.00;100641.68;1689225;84;21245;-57
2022/10/12 00:17:06;;;;;;;5.08;3.40;;;;;;;7.68;100.00;100641.05;1689654;84;21303;-70
2022/10/12 00:19:33;;;;;;;7.53;4.33;;;;;;;7.71;100.00;100639.93;1689064;84;21005;-57
2022/10/12 00:22:01;;;;;;;5.73;4.13;;;;;;;7.76;100.00;100646.75;1689490;84;21377;-57
2022/10/12 00:24:30;;;;;;;5.50;3.40;;;;;;;7.80;100.00;100655.40;1689509;84;21274;-58
2022/10/12 00:26:57;;;;;;;6.80;4.03;;;;;;;7.86;100.00;100647.46;1689535;84;21244;-58
2022/10/12 00:29:24;;;;;;;8.27;4.63;;;;;;;7.90;100.00;100651.86;1688806;84;21817;-58
2022/10/12 00:31:54;;;;;;;4.80;3.20;;;;;;;7.84;100.00;100655.91;1689392;84;21318;-57
2022/10/12 00:34:21;;;;;;;7.67;4.40;;;;;;;7.85;100.00;100658.82;1689604;84;21395;-57
2022/10/12 00:36:49;;;;;;;8.60;3.97;;;;;;;7.80;100.00;100668.83;1689624;84;21314;-58
2022/10/12 00:39:16;;;;;;;6.37;3.47;;;;;;;7.78;100.00;100666.89;1689302;84;21340;-71
2022/10/12 00:41:43;;;;;;;8.40;3.83;;;;;;;7.72;100.00;100666.20;1689315;84;21241;-59
2022/10/12 00:44:45;;;;;;;7.57;4.00;;;;;;;7.71;100.00;100665.39;1689388;84;22030;-58
2022/10/12 00:47:17;;;;;;;6.27;3.97;;;;;;;7.61;100.00;100662.57;1689107;84;21250;-57
2022/10/12 00:49:55;;;;;;;8.23;3.70;;;;;;;7.58;100.00;100667.60;1689738;84;21592;-57
2022/10/12 00:52:26;;;;;;;7.13;4.30;;;;;;;7.58;100.00;100669.36;1688618;84;21195;-57
2022/10/12 00:54:53;;;;;;;7.70;3.90;;;;;;;7.55;100.00;100666.61;1689057;84;21771;-58
2022/10/12 00:57:20;;;;;;;6.73;3.80;;;;;;;7.60;100.00;100670.84;1689696;84;22135;-57
2022/10/12 00:59:55;;;;;;;8.47;3.40;;;;;;;7.61;100.00;100667.27;1689550;84;20981;-58
2022/10/12 01:02:23;;;;;;;6.13;3.93;;;;;;;7.62;100.00;100669.41;1689723;84;21287;-57
2022/10/12 01:04:50;;;;;;;7.20;4.17;;;;;;;7.73;100.00;100679.53;1662140;85;21150;-71
2022/10/12 01:07:17;;;;;;;10.37;4.23;;;;;;;7.78;100.00;100672.08;1681541;85;21687;-59
2022/10/12 01:09:44;;;;;;;6.13;3.67;;;;;;;7.80;100.00;100676.62;1681505;85;21269;-57
2022/10/12 01:12:12;;;;;;;6.07;3.50;;;;;;;7.76;100.00;100671.41;1681659;85;21220;-57
2022/10/12 01:14:40;;;;;;;6.23;3.57;;;;;;;7.78;100.00;100665.59;1681744;85;21217;-71
2022/10/12 01:17:47;;;;;;;5.40;3.47;;;;;;;7.79;100.00;100675.00;1681362;85;21054;-58
2022/10/12 01:20:22;;;;;;;6.20;3.70;;;;;;;7.70;100.00;100675.94;1631277;87;21028;-57
2022/10/12 01:23:10;;;;;;;7.90;3.63;;;;;;;7.65;100.00;100677.70;1634004;87;21364;-57
2022/10/12 01:25:55;;;;;;;8.60;3.83;;;;;;;7.64;100.00;100677.84;1695142;83;21292;-59
2022/10/12 01:28:40;;;;;;;6.87;3.50;;;;;;;7.69;100.00;100678.17;1683216;83;21332;-59
2022/10/12 01:31:33;;;;;;;5.73;3.53;;;;;;;7.67;100.00;100685.31;1716357;83;21756;-62
2022/10/12 01:34:22;;;;;;;9.20;4.17;;;;;;;7.66;100.00;100685.00;1716513;83;21578;-58
2022/10/12 01:36:58;;;;;;;6.40;3.13;;;;;;;7.61;100.00;100694.52;1715825;83;21323;-72
2022/10/12 01:39:34;;;;;;;6.47;3.13;;;;;;;7.56;100.00;100691.09;1716652;83;21638;-59
2022/10/12 01:42:06;;;;;;;6.07;3.77;;;;;;;7.53;100.00;100692.68;1716837;83;21255;-58
2022/10/12 01:44:32;;;;;;;10.15;4.00;;;;;;;7.43;100.00;100695.06;1715930;83;27377;-61
2022/10/12 01:47:00;;;;;;;7.67;4.30;;;;;;;7.39;100.00;100697.14;1716463;83;20975;-58
2022/10/12 01:49:30;;;;;;;6.43;3.37;;;;;;;7.33;100.00;100693.84;1716440;83;21278;-58
2022/10/12 01:52:03;;;;;;;8.10;4.10;;;;;;;7.24;100.00;100697.36;1716890;83;21347;-59
2022/10/12 01:55:00;;;;;;;7.10;3.87;;;;;;;7.11;100.00;100693.02;1716808;83;21320;-71
2022/10/12 01:57:35;;;;;;;7.10;3.90;;;;;;;7.03;100.00;100701.55;1716607;83;21170;-59
2022/10/12 02:00:10;;;;;;;7.00;4.40;;;;;;;6.90;100.00;100703.23;1716710;82;21255;-58
2022/10/12 02:03:01;;;;;;;7.43;3.90;;;;;;;6.77;100.00;100691.10;1717021;82;21326;-60
2022/10/12 02:05:37;;;;;;;5.75;3.92;;;;;;;6.72;100.00;100706.28;1716611;83;21285;-58
2022/10/12 02:08:32;;;;;;;23.70;5.60;;;;;;;6.69;100.00;100707.38;1715039;83;21182;-60
2022/10/12 02:11:06;;;;;;;6.57;4.17;;;;;;;6.70;100.00;100709.00;1716341;83;21260;-59
2022/10/12 02:13:38;;;;;;;5.40;3.07;;;;;;;6.67;100.00;100714.50;1715968;83;21248;-71
2022/10/12 02:16:09;;;;;;;6.03;3.22;;;;;;;6.62;100.00;100715.88;1716425;83;21497;-58
2022/10/12 02:18:41;;;;;;;6.10;3.23;;;;;;;6.61;100.00;100712.48;1716530;83;21011;-58
2022/10/12 02:21:08;;;;;;;6.17;3.87;;;;;;;6.66;100.00;100712.04;1716545;83;21331;-58
2022/10/12 02:23:37;;;;;;;6.40;4.00;;;;;;;6.64;100.00;100719.97;1715677;83;21039;-66
2022/10/12 02:26:04;;;;;;;5.17;3.60;;;;;;;6.67;100.00;100718.87;1716406;83;21997;-58
2022/10/12 02:28:32;;;;;;;7.80;3.30;;;;;;;6.73;100.00;100722.16;1716365;83;21286;-59
2022/10/12 02:31:25;;;;;;;7.50;3.73;;;;;;;6.75;100.00;100721.05;1716683;83;21293;-59
2022/10/12 02:34:07;;;;;;;5.10;3.23;;;;;;;6.78;100.00;100717.34;1714411;83;21314;-59
2022/10/12 02:37:06;;;;;;;4.35;2.83;;;;;;;6.84;100.00;100718.06;1713623;83;21325;-58
2022/10/12 02:39:41;;;;;;;8.33;3.40;;;;;;;6.82;100.00;100715.63;1716710;83;21039;-61
2022/10/12 02:42:11;;;;;;;6.53;4.10;;;;;;;6.81;100.00;100723.05;1715605;83;21851;-58
2022/10/12 02:44:39;;;;;;;6.63;3.70;;;;;;;6.77;100.00;100723.48;1716238;83;21352;-59
2022/10/12 02:47:07;;;;;;;8.20;4.20;;;;;;;6.77;100.00;100728.19;1716798;83;21844;-58
2022/10/12 02:49:35;;;;;;;7.27;4.40;;;;;;;6.68;100.00;100729.56;1696745;83;21881;-60
2022/10/12 02:52:03;;;;;;;7.97;4.83;;;;;;;6.63;100.00;100725.28;1716779;83;21120;-58
2022/10/12 02:54:30;;;;;;;8.63;4.93;;;;;;;6.54;100.00;100736.04;1716755;83;21109;-58
2022/10/12 02:56:57;;;;;;;8.10;4.53;;;;;;;6.53;100.00;100735.23;1716206;83;21043;-58
2022/10/12 02:59:24;;;;;;;6.90;3.90;;;;;;;6.48;100.00;100729.67;1716477;83;21260;-59
2022/10/12 03:01:51;;;;;;;5.50;3.57;;;;;;;6.45;100.00;100731.73;1716009;83;21207;-59
2022/10/12 03:04:19;;;;;;;5.90;3.37;;;;;;;6.45;100.00;100729.15;1715776;83;21244;-58
2022/10/12 03:06:46;;;;;;;6.13;3.20;;;;;;;6.43;100.00;100732.34;1716114;83;21798;-72
2022/10/12 03:09:14;;;;;;;9.60;3.30;;;;;;;6.42;100.00;100736.72;1716547;83;21750;-58
2022/10/12 03:11:45;;;;;;;6.17;2.80;;;;;;;6.39;100.00;100737.00;1716695;83;21277;-58
2022/10/12 03:14:13;;;;;;;4.73;2.53;;;;;;;6.36;100.00;100736.47;1716855;83;21217;-58
2022/10/12 03:16:41;;;;;;;4.57;3.10;;;;;;;6.30;100.00;100741.27;1716078;83;21641;-70
2022/10/12 03:19:10;;;;;;;6.10;3.47;;;;;;;6.32;100.00;100735.94;1716561;83;21295;-58
2022/10/12 03:21:37;;;;;;;4.87;3.20;;;;;;;6.30;100.00;100740.46;1716548;83;21321;-58
2022/10/12 03:24:04;;;;;;;11.83;5.00;;;;;;;6.29;100.00;100741.43;1716890;83;22455;-60
2022/10/12 03:26:33;;;;;;;5.20;3.40;;;;;;;6.28;100.00;100739.30;1716622;83;21301;-58
2022/10/12 03:29:00;;;;;;;5.80;3.13;;;;;;;6.27;100.00;100744.63;1716059;83;21301;-60
2022/10/12 03:31:28;;;;;;;5.23;3.60;;;;;;;6.17;100.00;100745.94;1716713;83;21667;-58
2022/10/12 03:33:55;;;;;;;6.70;3.47;;;;;;;6.15;100.00;100742.70;1716530;83;21231;-58
2022/10/12 03:36:24;;;;;;;5.28;3.10;;;;;;;6.16;100.00;100744.33;1716763;83;21257;-59
2022/10/12 03:38:51;;;;;;;7.57;3.43;;;;;;;6.15;100.00;100740.59;1716070;83;20943;-60
2022/10/12 03:41:18;;;;;;;6.13;3.20;;;;;;;6.18;100.00;100751.97;1716340;83;21700;-59
2022/10/12 03:43:46;;;;;;;7.87;3.57;;;;;;;6.19;100.00;100751.00;1716176;83;21225;-60
2022/10/12 03:46:13;;;;;;;5.23;3.20;;;;;;;6.21;100.00;100750.36;1716390;83;21283;-58
2022/10/12 03:48:40;;;;;;;6.03;2.93;;;;;;;6.21;100.00;100743.89;1716719;83;22399;-58
2022/10/12 03:51:07;;;;;;;7.00;3.27;;;;;;;6.26;100.00;100750.77;1715838;83;21224;-58
2022/10/12 03:53:37;;;;;;;7.37;3.50;;;;;;;6.31;100.00;100749.85;1716368;83;21185;-58
2022/10/12 03:56:05;;;;;;;6.60;3.13;;;;;;;6.36;100.00;100752.81;1716622;83;21146;-58
2022/10/12 03:58:33;;;;;;;5.17;3.10;;;;;;;6.46;100.00;100752.78;1716573;83;21149;-58
2022/10/12 04:00:59;;;;;;;6.43;3.00;;;;;;;6.66;100.00;100752.19;1716395;83;21254;-59
2022/10/12 04:03:26;;;;;;;4.57;3.10;;;;;;;6.89;100.00;100753.89;1715927;83;21768;-58
2022/10/12 04:05:57;;;;;;;7.03;3.00;;;;;;;7.13;100.00;100754.63;1707173;83;21101;-58
2022/10/12 04:08:29;;;;;;;5.03;2.80;;;;;;;7.42;100.00;100751.77;1701975;84;21270;-57
2022/10/12 04:10:57;;;;;;;7.33;3.57;;;;;;;7.51;100.00;100757.38;1701975;84;21204;-66
2022/10/12 04:13:24;;;;;;;6.73;3.30;;;;;;;7.55;100.00;100760.00;1701689;84;21314;-57
2022/10/12 04:15:51;;;;;;;5.07;3.07;;;;;;;7.67;100.00;100764.45;1701990;84;21208;-57
2022/10/12 04:18:18;;;;;;;5.53;2.97;;;;;;;7.77;100.00;100768.59;1702047;84;21249;-58
2022/10/12 04:20:48;;;;;;;4.93;3.00;;;;;;;8.16;100.00;100768.16;1701675;84;21317;-61
2022/10/12 04:23:15;;;;;;;4.77;2.77;;;;;;;8.51;100.00;100766.39;1701730;84;21094;-57
2022/10/12 04:25:42;;;;;;;5.37;3.40;;;;;;;8.92;100.00;100771.23;1702062;84;21273;-57
2022/10/12 04:28:10;;;;;;;5.83;3.60;;;;;;;9.21;100.00;100764.29;1702017;84;21250;-57
2022/10/12 04:30:37;;;;;;;6.03;3.60;;;;;;;9.59;100.00;100771.62;1702023;84;21916;-57
2022/10/12 04:33:05;;;;;;;5.70;3.40;;;;;;;9.66;100.00;100772.09;1684324;85;21514;-68
2022/10/12 04:35:32;;;;;;;5.10;3.10;;;;;;;9.66;100.00;100772.09;1667554;85;21986;-57
2022/10/12 04:37:59;;;;;;;5.20;3.17;;;;;;;9.76;100.00;100769.30;1667698;85;21714;-58
2022/10/12 04:40:26;;;;;;;5.60;3.40;;;;;;;9.88;100.00;100777.09;1701781;84;22280;-57
2022/10/12 04:42:55;;;;;;;8.63;3.63;;;;;;;10.04;100.00;100778.03;1702200;84;21585;-58
2022/10/12 04:45:22;;;;;;;5.47;3.23;;;;;;;10.08;100.00;100775.45;1701270;84;21650;-58
2022/10/12 04:47:49;;;;;;;5.33;3.67;;;;;;;10.23;100.00;100775.08;1702344;84;21442;-56
2022/10/12 04:50:17;;;;;;;5.27;3.53;;;;;;;10.37;100.00;100781.39;1702342;84;21829;-57
2022/10/12 04:52:44;;;;;;;5.70;4.10;;;;;;;10.46;100.00;100785.61;1701959;83;20998;-57
2022/10/12 04:55:11;;;;;;;5.93;3.00;;;;;;;10.61;100.00;100784.41;1701931;84;21501;-66
2022/10/12 04:57:38;;;;;;;5.43;2.80;;;;;;;10.61;100.00;100784.41;1701948;84;21430;-58
2022/10/12 05:00:06;;;;;;;5.97;3.27;;;;;;;10.73;100.00;100786.14;1701959;84;21037;-57
2022/10/12 05:02:33;;;;;;;5.83;3.40;;;;;;;10.73;100.00;100786.14;1701974;84;21899;-57
2022/10/12 05:05:01;;;;;;;4.83;3.17;;;;;;;10.80;100.00;100786.59;1703923;83;20931;-57
2022/10/12 05:07:28;;;;;;;5.47;2.97;;;;;;;10.85;100.00;100788.18;1716320;83;22902;-57
2022/10/12 05:09:55;;;;;;;4.60;2.93;;;;;;;10.94;100.00;100782.42;1716608;83;21336;-57
2022/10/12 05:12:22;;;;;;;7.90;3.60;;;;;;;10.98;100.00;100780.28;1716717;83;20900;-57
2022/10/12 05:14:50;;;;;;;5.30;3.30;;;;;;;11.12;100.00;100789.98;1716857;83;21237;-57
2022/10/12 05:17:19;;;;;;;5.43;3.30;;;;;;;11.19;100.00;100790.91;1715875;83;21035;-57
2022/10/12 05:19:47;;;;;;;4.57;3.37;;;;;;;11.31;100.00;100789.52;1716837;83;21035;-58
2022/10/12 05:22:14;;;;;;;5.27;3.03;;;;;;;11.47;100.00;100791.67;1716565;83;20947;-57
2022/10/12 05:24:42;;;;;;;6.10;3.23;;;;;;;11.60;100.00;100787.99;1716846;83;20912;-57
2022/10/12 05:27:10;;;;;;;5.77;3.07;;;;;;;11.74;100.00;100795.02;1716084;83;20971;-58
2022/10/12 05:29:37;;;;;;;10.27;3.50;;;;;;;11.88;100.00;100798.20;1716516;83;21379;-57
2022/10/12 05:32:04;;;;;;;5.27;3.37;;;;;;;12.06;100.00;100803.59;1716788;83;20948;-58
2022/10/12 05:34:33;;;;;;;4.70;2.90;;;;;;;12.28;100.00;100804.50;1716644;83;21010;-57
2022/10/12 05:37:00;;;;;;;4.73;3.10;;;;;;;12.52;100.00;100808.62;1716210;83;21054;-65
2022/10/12 05:39:27;;;;;;;5.47;3.00;;;;;;;12.85;100.00;100804.61;1716278;83;21159;-57
2022/10/12 05:41:55;;;;;;;5.80;3.37;;;;;;;13.43;100.00;100811.65;1716484;83;20932;-59
2022/10/12 05:44:22;;;;;;;6.20;3.60;;;;;;;14.31;100.00;100802.38;1716732;83;21477;-57
2022/10/12 05:46:50;;;;;;;6.43;4.07;;;;;;;15.22;100.00;100800.30;1716053;83;21008;-68
2022/10/12 05:49:17;;;;;;;5.67;3.20;;;;;;;16.07;100.00;100801.83;1716379;83;21022;-57
2022/10/12 05:51:44;;;;;;;5.03;3.27;;;;;;;16.93;100.00;100798.90;1716579;83;21222;-57
2022/10/12 05:54:11;;;;;;;4.67;3.20;;;;;;;17.68;100.00;100803.41;1716651;83;20990;-57
2022/10/12 05:56:39;;;;;;;5.70;3.10;;;;;;;18.43;100.00;100804.09;1716250;83;20995;-60
2022/10/12 05:59:06;;;;;;;4.50;2.57;;;;;;;19.06;100.00;100805.55;1715879;83;21508;-57
2022/10/12 06:01:33;;;;;;;4.87;3.30;;;;;;;19.58;100.00;100801.77;1716514;83;21672;-57
2022/10/12 06:03:59;;;;;;;4.67;2.70;;;;;;;20.15;100.00;100807.81;1716473;83;22629;-57
2022/10/12 06:06:26;;;;;;;6.03;3.07;;;;;;;20.63;100.00;100807.48;1708210;83;20895;-57
2022/10/12 06:08:53;;;;;;;4.03;2.65;;;;;;;21.18;100.00;100806.63;1701999;84;20899;-63
2022/10/12 06:11:21;;;;;;;3.60;2.37;;;;;;;21.70;100.00;100812.48;1701368;84;21480;-57
2022/10/12 06:13:48;;;;;;;4.78;2.58;;;;;;;21.97;100.00;100807.33;1702193;84;21066;-57
2022/10/12 06:16:15;;;;;;;4.15;1.98;;;;;;;22.17;92.56;100804.16;1702152;84;21552;-57
2022/10/12 06:18:43;;;;;;;4.37;2.05;;;;;;;22.47;88.23;100801.59;1702144;83;22118;-61
2022/10/12 06:21:10;;;;;;;4.37;2.30;;;;;;;22.77;82.11;100814.41;1701757;84;20934;-57
2022/10/12 06:23:37;;;;;;;4.60;2.12;;;;;;;23.06;81.57;100818.42;1702318;84;20982;-57
2022/10/12 06:26:05;;;;;;;5.70;2.20;;;;;;;23.80;72.37;100826.21;1702314;84;21469;-60
2022/10/12 06:28:32;;;;;;;4.70;2.02;;;;;;;23.80;72.37;100826.21;1702180;84;21262;-57
2022/10/12 06:31:01;;;;;;;4.15;2.00;;;;;;;24.18;67.78;100821.62;1701661;84;21034;-69
2022/10/12 06:33:28;;;;;;;3.62;2.45;;;;;;;24.50;67.23;100830.28;1702103;84;20993;-60
2022/10/12 06:35:55;;;;;;;4.47;2.52;;;;;;;24.71;64.77;100821.03;1702389;84;20911;-57
2022/10/12 06:38:22;;;;;;;8.45;2.58;;;;;;;24.92;62.53;100825.31;1702450;84;20987;-60
2022/10/12 06:40:52;;;;;;;3.58;2.33;;;;;;;25.00;60.30;100827.99;1702251;84;21165;-57
2022/10/12 06:43:21;;;;;;;3.95;2.40;;;;;;;25.06;58.34;100832.82;1701623;84;20994;-60
2022/10/12 06:45:49;;;;;;;4.58;2.50;;;;;;;25.06;56.53;100828.81;1702239;84;20950;-59
2022/10/12 06:48:16;;;;;;;3.17;1.62;;;;;;;25.21;54.21;100832.86;1701867;84;20887;-60
2022/10/12 06:50:43;;;;;;;3.20;1.87;;;;;;;25.39;53.90;100832.33;1702141;84;20887;-68
2022/10/12 06:53:10;;;;;;;3.58;1.80;;;;;;;25.55;51.85;100829.64;1673698;84;21300;-57
2022/10/12 06:55:40;;;;;;;3.62;1.77;;;;;;;25.65;51.44;100831.77;1701944;84;21052;-59
2022/10/12 06:58:08;;;;;;;3.85;1.87;;;;;;;25.81;49.67;100830.44;1702155;84;20954;-59
2022/10/12 07:00:35;;;;;;;2.55;1.55;;;;;;;25.86;49.44;100837.89;1701873;84;21062;-59
2022/10/12 07:03:02;;;;;;;3.33;1.50;;;;;;;26.02;48.85;100829.84;1701771;84;20895;-61
2022/10/12 07:05:29;;;;;;;3.02;1.50;;;;;;;26.25;47.96;100828.41;1702519;83;22345;-58
2022/10/12 07:07:57;;;;;;;4.47;1.85;;;;;;;26.55;48.05;100830.18;1716608;83;21062;-58
2022/10/12 07:10:25;;;;;;;3.83;1.80;;;;;;;26.81;46.91;100824.94;1716346;83;20996;-57
2022/10/12 07:12:52;;;;;;;4.78;1.80;;;;;;;26.97;46.01;100828.84;1716237;83;21112;-60
2022/10/12 07:15:19;;;;;;;2.70;1.55;;;;;;;26.77;44.08;100825.78;1716327;83;20947;-62
2022/10/12 07:17:46;;;;;;;2.67;1.27;;;;;;;26.78;44.14;100827.37;1716545;83;21729;-60
2022/10/12 07:20:15;;;;;;;3.87;1.27;;;;;;;26.74;43.78;100824.98;1716250;83;20919;-59
2022/10/12 07:22:43;;;;;;;2.40;1.40;;;;;;;26.80;43.14;100827.36;1716514;83;21029;-60
2022/10/12 07:25:10;;;;;;;1.72;1.10;;;;;;;26.83;40.68;100824.14;1716464;83;20931;-61
2022/10/12 07:27:37;;;;;;;2.77;1.32;;;;;;;26.83;40.84;100826.02;1715770;83;21006;-62
2022/10/12 07:30:08;;;;;;;2.33;1.25;;;;;;;26.81;39.80;100826.28;1716580;83;22173;-57
2022/10/12 07:32:36;;;;;;;2.12;1.00;;;;;;;26.77;38.32;100825.23;1716790;83;20986;-60
2022/10/12 07:35:05;;;;;;;1.77;1.10;;;;;;;26.58;38.39;100830.43;1716451;83;20892;-71
2022/10/12 07:37:32;;;;;;;3.15;1.17;;;;;;;26.38;38.05;100831.31;1716307;83;21425;-66
2022/10/12 07:39:59;;;;;;;2.25;1.22;;;;;;;26.26;37.46;100832.17;1716826;83;21486;-59
2022/10/12 07:42:27;;;;;;;1.95;1.07;;;;;;;26.02;37.08;100832.50;1716666;83;21164;-60
2022/10/12 07:44:53;;;;;;;3.77;1.07;;;;;;;25.77;36.88;100835.48;1716715;83;21374;-59
2022/10/12 07:47:21;;;;;;;2.25;1.12;;;;;;;25.56;36.57;100836.04;1716438;83;20999;-72
2022/10/12 07:49:47;;;;;;;3.25;1.22;;;;;;;25.43;36.60;100835.27;1716355;83;21078;-63
2022/10/12 07:52:15;;;;;;;2.35;1.07;;;;;;;25.21;37.30;100840.33;1716565;83;21501;-59
2022/10/12 07:54:42;;;;;;;2.30;1.05;;;;;;;25.13;36.87;100837.39;1716604;82;21183;-59
2022/10/12 07:57:09;;;;;;;2.27;1.00;;;;;;;25.19;36.72;100837.64;1716496;83;20947;-62
2022/10/12 07:59:37;;;;;;;2.40;1.20;;;;;;;25.09;37.50;100838.96;1715764;83;21129;-59
2022/10/12 08:02:04;;;;;;;2.30;1.02;;;;;;;25.22;37.47;100839.25;1716427;83;21533;-60
2022/10/12 08:04:31;;;;;;;2.12;0.95;;;;;;;25.31;36.43;100840.87;1716255;83;21000;-61
2022/10/12 08:07:00;;;;;;;2.12;1.32;;;;;;;25.13;36.15;100836.06;1716398;83;21228;-59
2022/10/12 08:09:27;;;;;;;2.47;1.40;;;;;;;24.96;37.41;100833.09;1716151;83;21069;-75
2022/10/12 08:11:57;;;;;;;2.47;1.15;;;;;;;24.95;36.84;100830.13;1716217;83;20983;-62
2022/10/12 12:42:48;;;;;;;1.93;0.70;;;;;;;17.91;35.15;100772.49;1795508;79;27073;-58
2022/10/12 12:45:36;;;;;;;2.30;0.80;;;;;;;17.87;35.07;100773.95;1756207;80;20932;-58
2022/10/12 12:48:08;;;;;;;2.33;0.80;;;;;;;17.88;35.30;100776.39;1755992;81;21233;-61
2022/10/12 12:50:36;;;;;;;2.17;1.00;;;;;;;17.84;35.57;100775.70;1755929;81;21045;-57
2022/10/12 12:53:15;;;;;;;1.90;0.77;;;;;;;17.86;35.57;100776.30;1756059;81;21466;-57
2022/10/12 12:55:48;;;;;;;2.60;0.77;;;;;;;17.77;35.88;100775.79;1722447;82;20939;-58
2022/10/12 12:58:38;;;;;;;2.13;0.80;;;;;;;17.68;36.01;100779.16;1721197;83;20884;-58
2022/10/12 13:01:24;;;;;;;1.80;0.80;;;;;;;17.58;36.48;100790.73;1722676;83;21353;-58
2022/10/12 13:04:21;;;;;;;6.73;1.00;;;;;;;17.46;36.99;100785.36;1722677;83;21439;-58
2022/10/12 13:07:06;;;;;;;2.23;0.90;;;;;;;17.44;37.34;100787.39;1722865;83;21013;-66
2022/10/12 13:09:44;;;;;;;1.63;0.70;;;;;;;17.43;37.78;100792.89;1722782;83;21014;-58
2022/10/12 13:12:42;;;;;;;2.00;0.77;;;;;;;17.37;37.71;100789.27;1722772;83;20974;-59
2022/10/12 13:15:34;;;;;;;2.30;1.23;;;;;;;17.32;38.78;100793.58;1722581;83;21181;-58
2022/10/12 13:18:17;;;;;;;;;;;;;;;17.27;37.64;100796.83;1724859;83;20978;-63
2022/10/12 13:20:47;;;;;;;3.50;2.03;;;;;;;17.20;36.72;100794.78;1709225;84;20117;-59
2022/10/12 13:23:21;;;;;;;3.90;2.00;;;;;;;17.03;37.13;100801.86;1708955;84;20881;-60
2022/10/12 13:26:06;;;;;;;5.20;1.70;;;;;;;16.88;37.63;100796.59;1720013;83;21034;-69
2022/10/12 13:28:38;;;;;;;3.67;1.00;;;;;;;16.77;38.66;100804.13;1720111;83;21321;-57
2022/10/12 13:31:24;;;;;;;1.50;0.80;;;;;;;16.65;38.97;100806.29;1717263;83;21513;-58
2022/10/12 13:34:17;;;;;;;3.63;1.07;;;;;;;16.51;39.50;100804.21;1720108;83;21466;-57
2022/10/12 13:37:00;;;;;;;1.27;0.53;;;;;;;16.35;39.99;100804.69;1720041;83;20864;-61
2022/10/12 13:39:27;;;;;;;2.53;1.00;;;;;;;16.18;39.82;100798.56;1720160;83;21504;-57
2022/10/12 13:41:59;;;;;;;2.33;0.97;;;;;;;16.04;39.80;100804.86;1716274;83;21305;-57
2022/10/12 13:44:29;;;;;;;3.43;1.40;;;;;;;15.89;40.22;100799.02;1712343;83;20901;-57
2022/10/12 13:47:00;;;;;;;3.07;1.27;;;;;;;15.67;40.54;100794.48;1712104;83;21391;-58
2022/10/12 13:49:33;;;;;;;3.30;1.60;;;;;;;15.47;40.81;100804.47;1712694;83;20952;-60
2022/10/12 13:52:14;;;;;;;2.70;1.53;;;;;;;15.26;41.19;100801.50;1712238;83;21524;-58
2022/10/12 13:54:47;;;;;;;2.03;1.07;;;;;;;15.07;41.56;100803.59;1711908;83;21227;-58
2022/10/12 13:57:36;;;;;;;2.20;1.00;;;;;;;14.90;42.21;100807.61;1712334;83;22178;-60
2022/10/12 14:00:16;;;;;;;2.90;0.90;;;;;;;14.71;42.93;100809.97;1712207;83;20920;-68
2022/10/12 14:02:55;;;;;;;1.55;0.47;;;;;;;14.51;44.22;100805.16;1712065;83;21298;-57
2022/10/12 14:05:23;;;;;;;1.57;0.63;;;;;;;14.32;45.42;100811.39;1711970;83;21498;-57
2022/10/12 14:07:54;;;;;;;2.03;0.77;;;;;;;14.13;46.79;100813.41;1711565;83;20937;-65
2022/10/12 14:10:25;;;;;;;2.10;0.80;;;;;;;13.97;47.70;100809.75;1711965;83;21067;-57
2022/10/12 14:12:52;;;;;;;2.37;1.02;;;;;;;13.81;48.97;100816.09;1712324;83;20965;-58
2022/10/12 14:15:20;;;;;;;2.00;0.90;;;;;;;13.63;50.06;100820.48;1711852;83;21574;-59
2022/10/12 14:17:49;;;;;;;3.20;1.00;;;;;;;13.48;50.87;100819.24;1711653;83;21016;-67
2022/10/12 14:20:36;;;;;;;2.23;1.10;;;;;;;13.30;52.62;100823.63;1711915;83;21522;-57
2022/10/12 14:23:12;;;;;;;2.40;1.20;;;;;;;13.13;54.25;100822.20;1711855;83;20929;-56
2022/10/12 14:25:52;;;;;;;2.53;1.27;;;;;;;12.93;56.88;100822.50;1711725;83;21044;-58
2022/10/12 14:28:36;;;;;;;2.23;1.10;;;;;;;12.75;61.04;100819.77;1712132;83;21487;-59
2022/10/12 14:31:03;;;;;;;2.83;1.33;;;;;;;12.55;64.77;100827.37;1711498;83;20968;-61
2022/10/12 14:33:30;;;;;;;2.20;1.10;;;;;;;12.34;67.70;100820.75;1711692;83;21313;-57
2022/10/12 14:36:16;;;;;;;2.90;1.20;;;;;;;12.17;71.36;100827.97;1711884;83;21549;-57
2022/10/12 14:38:48;;;;;;;2.33;1.00;;;;;;;12.00;74.39;100829.92;1709650;83;20945;-65
2022/10/12 14:41:36;;;;;;;2.57;1.10;;;;;;;11.84;74.40;100827.47;1712146;83;21541;-57
2022/10/12 14:44:13;;;;;;;2.67;1.10;;;;;;;11.70;76.84;100821.18;1712165;83;21458;-57
2022/10/12 14:46:44;;;;;;;2.70;1.00;;;;;;;11.54;80.35;100833.07;1711573;83;21760;-59
2022/10/12 14:49:21;;;;;;;2.37;1.17;;;;;;;11.41;80.99;100827.95;1712043;83;20913;-57
2022/10/12 14:51:49;;;;;;;2.87;1.33;;;;;;;11.31;84.21;100832.58;1712127;83;21028;-56
2022/10/12 14:54:16;;;;;;;3.43;1.90;;;;;;;11.18;86.12;100829.25;1711797;83;20981;-61
2022/10/12 14:56:43;;;;;;;2.83;1.20;;;;;;;11.07;88.00;100833.55;1711819;83;21731;-57
2022/10/12 14:59:09;;;;;;;2.30;0.87;;;;;;;10.96;89.24;100831.33;1712192;83;22145;-57
2022/10/12 15:01:38;;;;;;;2.40;1.00;;;;;;;10.87;91.50;100837.55;1711956;83;21681;-57
2022/10/12 15:04:05;;;;;;;2.30;1.00;;;;;;;10.77;91.72;100836.97;1711886;83;21736;-67
2022/10/12 15:06:32;;;;;;;2.43;1.20;;;;;;;10.68;92.33;100838.78;1711817;83;21730;-57
2022/10/12 15:08:59;;;;;;;1.93;0.90;;;;;;;10.65;90.87;100839.14;1711965;83;21194;-57
2022/10/12 15:11:27;;;;;;;1.57;0.90;;;;;;;10.64;91.91;100843.52;1711944;83;21685;-57
2022/10/12 15:13:54;;;;;;;2.23;1.20;;;;;;;10.58;93.08;100838.99;1711938;83;21736;-59
2022/10/12 15:16:24;;;;;;;2.73;0.93;;;;;;;10.54;93.96;100848.62;1711543;83;21688;-57
2022/10/12 15:18:52;;;;;;;2.83;1.30;;;;;;;10.43;97.52;100848.49;1711859;83;21714;-57
2022/10/12 15:21:19;;;;;;;2.43;1.20;;;;;;;10.31;97.99;100848.53;1712031;83;21056;-56
2022/10/12 15:23:47;;;;;;;2.40;1.17;;;;;;;10.22;99.46;100851.59;1711910;83;21608;-57
2022/10/12 15:26:16;;;;;;;2.53;1.43;;;;;;;10.11;100.00;100853.23;1711310;83;21993;-57
2022/10/12 15:28:44;;;;;;;2.73;1.30;;;;;;;10.04;100.00;100854.88;1711956;83;21632;-57
2022/10/12 15:31:13;;;;;;;2.73;1.23;;;;;;;9.97;100.00;100860.75;1712053;83;22025;-57
2022/10/12 15:33:42;;;;;;;3.80;0.87;;;;;;;9.91;100.00;100860.09;1711377;83;21451;-68
2022/10/12 15:36:09;;;;;;;5.33;1.40;;;;;;;9.83;100.00;100853.59;1711822;83;21574;-60
2022/10/12 15:38:36;;;;;;;3.57;1.70;;;;;;;9.69;100.00;100862.86;1711744;83;21315;-56
2022/10/12 15:41:03;;;;;;;5.30;2.40;;;;;;;9.69;100.00;100862.86;1711691;83;21256;-57
2022/10/12 15:43:31;;;;;;;7.90;4.87;;;;;;;9.63;100.00;100857.51;1714238;83;21357;-68
2022/10/12 15:45:59;;;;;;;7.37;4.53;;;;;;;9.60;100.00;100862.54;1714995;83;21349;-56
2022/10/12 15:48:27;;;;;;;5.93;3.57;;;;;;;9.57;100.00;100865.95;1715259;83;22328;-56
2022/10/12 15:50:55;;;;;;;6.20;3.07;;;;;;;9.54;100.00;100863.66;1715127;83;21258;-56
2022/10/12 15:53:23;;;;;;;7.57;3.77;;;;;;;9.47;100.00;100867.39;1714725;83;21275;-66
2022/10/12 15:55:52;;;;;;;6.23;3.13;;;;;;;9.41;100.00;100866.75;1714591;83;21620;-56
2022/10/12 15:58:19;;;;;;;5.83;2.77;;;;;;;9.35;100.00;100862.98;1715243;83;21343;-57
2022/10/12 16:00:47;;;;;;;7.07;2.10;;;;;;;9.31;100.00;100866.88;1714860;83;21285;-56
2022/10/12 16:03:18;;;;;;;7.43;2.47;;;;;;;9.31;100.00;100864.28;1714806;83;21165;-56
2022/10/12 16:05:47;;;;;;;4.70;1.67;;;;;;;9.31;100.00;100873.38;1719336;83;21184;-56
2022/10/12 16:08:14;;;;;;;6.30;1.80;;;;;;;9.28;100.00;100872.89;1719708;83;21290;-55
2022/10/12 16:10:41;;;;;;;6.73;2.30;;;;;;;9.28;100.00;100875.48;1719889;83;21212;-56